createdAt,value
2022-11-17T00:00:23.182Z,65.29
2022-11-17T00:02:50.481Z,64.80
2022-11-17T00:05:17.534Z,64.85
2022-11-17T00:07:45.690Z,65.69
2022-11-17T00:10:13.518Z,66.46
2022-11-17T00:12:58.771Z,65.70
2022-11-17T00:15:25.607Z,65.34
2022-11-17T00:18:15.714Z,65.50
2022-11-17T00:21:01.075Z,66.72
2022-11-17T00:23:47.446Z,66.83
2022-11-17T00:26:35.804Z,66.48
2022-11-17T00:29:05.013Z,66.07
2022-11-17T00:31:54.384Z,65.75
2022-11-17T00:34:22.949Z,65.92
2022-11-17T00:36:51.889Z,65.46
2022-11-17T00:39:21.349Z,65.79
2022-11-17T00:41:48.485Z,65.33
2022-11-17T00:44:15.632Z,65.24
2022-11-17T00:46:45.063Z,64.42
2022-11-17T00:49:12.279Z,64.29
2022-11-17T00:51:39.268Z,65.21
2022-11-17T00:54:10.096Z,65.36
2022-11-17T00:56:37.033Z,65.46
2022-11-17T00:59:04.160Z,64.61
2022-11-17T01:01:31.514Z,64.93
2022-11-17T01:04:04.688Z,64.61
2022-11-17T01:06:36.466Z,64.48
2022-11-17T01:09:15.411Z,64.15
2022-11-17T01:11:42.884Z,64.34
2022-11-17T01:14:14.861Z,64.39
2022-11-17T01:16:46.211Z,64.73
2022-11-17T01:19:16.741Z,64.95
2022-11-17T01:21:43.846Z,65.11
2022-11-17T01:24:11.752Z,65.07
2022-11-17T01:26:39.926Z,64.49
2022-11-17T01:29:07.522Z,64.59
2022-11-17T01:31:46.195Z,65.12
2022-11-17T01:34:13.584Z,64.58
2022-11-17T01:37:02.459Z,65.34
2022-11-17T01:39:30.913Z,65.50
2022-11-17T01:41:58.622Z,64.90
2022-11-17T01:44:50.523Z,65.38
2022-11-17T01:47:33.010Z,65.33
2022-11-17T01:50:26.754Z,64.59
2022-11-17T01:52:57.599Z,64.21
2022-11-17T01:55:28.730Z,64.21
2022-11-17T01:58:05.905Z,65.13
2022-11-17T02:00:32.964Z,65.50
2022-11-17T02:03:00.467Z,65.10
2022-11-17T02:05:54.525Z,64.92
2022-11-17T02:08:24.500Z,64.95
2022-11-17T02:10:53.366Z,64.19
2022-11-17T02:13:23.890Z,64.40
2022-11-17T02:15:50.652Z,64.63
2022-11-17T02:18:18.180Z,65.02
2022-11-17T02:21:18.954Z,64.04
2022-11-17T02:23:45.598Z,64.35
2022-11-17T02:26:20.970Z,65.84
2022-11-17T02:29:37.854Z,67.53
2022-11-17T02:32:13.584Z,67.31
2022-11-17T02:34:54.029Z,67.15
2022-11-17T02:37:42.519Z,67.25
2022-11-17T02:40:14.136Z,66.92
2022-11-17T02:43:03.507Z,65.44
2022-11-17T02:45:40.341Z,65.61
2022-11-17T02:48:14.592Z,66.38
2022-11-17T02:50:44.798Z,65.64
2022-11-17T02:53:13.474Z,67.11
2022-11-17T02:55:40.392Z,66.88
2022-11-17T02:58:12.570Z,66.75
2022-11-17T03:00:50.858Z,66.42
2022-11-17T03:03:32.585Z,66.69
2022-11-17T03:06:20.156Z,67.22
2022-11-17T03:08:59.947Z,66.97
2022-11-17T03:11:42.660Z,67.08
2022-11-17T03:14:22.998Z,66.89
2022-11-17T03:17:05.625Z,66.17
2022-11-17T03:19:35.646Z,65.58
2022-11-17T03:22:15.037Z,65.81
2022-11-17T03:24:51.092Z,65.66
2022-11-17T03:27:32.810Z,65.67
2022-11-17T03:30:03.403Z,65.78
2022-11-17T03:32:36.266Z,65.26
2022-11-17T03:35:11.099Z,66.05
2022-11-17T03:37:43.188Z,66.26
2022-11-17T03:40:13.720Z,66.09
2022-11-17T03:42:52.525Z,66.33
2022-11-17T03:45:26.678Z,66.31
2022-11-17T03:48:03.010Z,66.28
2022-11-17T03:50:37.897Z,66.26
2022-11-17T03:53:05.909Z,67.17
2022-11-17T03:55:57.833Z,66.86
2022-11-17T03:58:29.735Z,67.04
2022-11-17T04:01:00.022Z,66.16
2022-11-17T04:03:32.179Z,66.78
2022-11-17T04:05:59.943Z,66.88
2022-11-17T04:08:29.629Z,66.51
2022-11-17T04:11:18.522Z,66.95
2022-11-17T04:14:03.737Z,68.00
2022-11-17T04:16:30.758Z,66.82
2022-11-17T04:18:58.825Z,67.07
2022-11-17T04:21:26.288Z,67.13
2022-11-17T04:23:53.038Z,67.46
2022-11-17T04:26:38.543Z,67.85
2022-11-17T04:29:05.274Z,68.87
2022-11-17T04:31:32.089Z,68.32
2022-11-17T04:34:06.574Z,67.74
2022-11-17T04:36:40.688Z,67.71
2022-11-17T04:39:07.569Z,67.44
2022-11-17T04:41:57.247Z,67.07
2022-11-17T04:44:26.683Z,66.52
2022-11-17T04:46:54.618Z,66.22
2022-11-17T04:49:23.024Z,65.25
2022-11-17T04:51:50.766Z,64.97
2022-11-17T04:54:20.789Z,64.45
2022-11-17T04:56:48.335Z,65.28
2022-11-17T04:59:15.091Z,65.89
2022-11-17T05:01:42.340Z,66.26
2022-11-17T05:04:11.266Z,66.39
2022-11-17T05:06:43.641Z,66.00
2022-11-17T05:09:17.283Z,65.92
2022-11-17T05:12:03.083Z,65.95
2022-11-17T05:14:30.078Z,66.14
2022-11-17T05:17:11.002Z,66.12
2022-11-17T05:19:46.624Z,66.00
2022-11-17T05:22:36.200Z,67.54
2022-11-17T05:25:04.290Z,67.31
2022-11-17T05:27:31.102Z,67.33
2022-11-17T05:29:58.079Z,67.29
2022-11-17T05:32:25.218Z,67.79
2022-11-17T05:34:51.858Z,67.77
2022-11-17T05:37:18.470Z,68.38
2022-11-17T05:39:45.116Z,68.68
2022-11-17T05:42:14.878Z,68.16
2022-11-17T05:44:41.611Z,68.36
2022-11-17T05:47:08.093Z,68.76
2022-11-17T05:49:34.917Z,68.89
2022-11-17T05:52:01.621Z,68.55
2022-11-17T05:54:28.435Z,68.36
2022-11-17T05:57:05.140Z,69.05
2022-11-17T05:59:50.080Z,68.94
2022-11-17T06:02:21.274Z,68.03
2022-11-17T06:04:50.147Z,68.26
2022-11-17T06:07:18.151Z,69.09
2022-11-17T06:09:46.075Z,70.04
2022-11-17T06:12:13.350Z,69.31
2022-11-17T06:14:40.290Z,69.23
2022-11-17T06:17:23.179Z,69.07
2022-11-17T06:20:05.131Z,69.22
2022-11-17T06:22:33.297Z,68.63
2022-11-17T06:25:01.993Z,67.63
2022-11-17T06:27:31.905Z,68.26
2022-11-17T06:30:01.630Z,68.28
2022-11-17T06:32:28.669Z,67.54
2022-11-17T06:34:56.643Z,67.71
2022-11-17T06:37:24.712Z,67.11
2022-11-17T06:39:51.579Z,66.50
2022-11-17T06:42:18.634Z,66.56
2022-11-17T06:44:45.796Z,66.35
2022-11-17T06:47:12.432Z,66.52
2022-11-17T06:49:39.296Z,67.28
2022-11-17T06:52:05.950Z,66.49
2022-11-17T06:54:32.492Z,66.60
2022-11-17T06:57:00.034Z,66.44
2022-11-17T06:59:26.760Z,66.29
2022-11-17T07:01:53.286Z,66.79
2022-11-17T07:04:19.995Z,67.93
2022-11-17T07:06:46.521Z,68.15
2022-11-17T07:09:13.164Z,69.39
2022-11-17T07:11:39.885Z,68.85
2022-11-17T07:14:06.436Z,68.91
2022-11-17T07:16:33.089Z,69.77
2022-11-17T07:19:03.419Z,69.15
2022-11-17T07:21:30.136Z,69.71
2022-11-17T07:23:57.025Z,69.70
2022-11-17T07:26:26.889Z,69.18
2022-11-17T07:28:53.616Z,69.98
2022-11-17T07:31:20.275Z,69.36
2022-11-17T07:33:47.256Z,69.25
2022-11-17T07:36:17.321Z,69.09
2022-11-17T07:38:44.248Z,68.33
2022-11-17T07:41:13.846Z,67.76
2022-11-17T07:43:41.046Z,68.00
2022-11-17T07:46:12.519Z,68.49
2022-11-17T07:48:40.399Z,68.00
2022-11-17T07:51:07.323Z,68.22
2022-11-17T07:53:35.161Z,67.99
2022-11-17T07:56:07.501Z,68.42
2022-11-17T07:58:34.982Z,68.00
2022-11-17T08:01:14.630Z,68.76
2022-11-17T08:03:42.896Z,68.59
2022-11-17T08:06:10.262Z,69.06
2022-11-17T08:08:38.312Z,69.74
2022-11-17T08:11:08.672Z,69.43
2022-11-17T08:13:36.449Z,69.63
2022-11-17T08:16:03.662Z,70.10
2022-11-17T08:18:30.919Z,69.57
2022-11-17T08:21:02.510Z,70.28
2022-11-17T08:23:29.491Z,69.94
2022-11-17T08:25:56.308Z,69.30
2022-11-17T08:28:23.567Z,69.89
2022-11-17T08:30:50.630Z,70.41
2022-11-17T08:33:17.429Z,70.29
2022-11-17T08:35:44.301Z,70.22
2022-11-17T08:38:15.405Z,70.41
2022-11-17T08:40:42.534Z,70.34
2022-11-17T08:43:09.669Z,69.66
2022-11-17T08:45:36.313Z,70.19
2022-11-17T08:48:04.114Z,70.39
2022-11-17T08:50:30.826Z,70.09
2022-11-17T08:52:57.611Z,70.25
2022-11-17T08:55:26.317Z,70.70
2022-11-17T08:57:53.270Z,70.84
2022-11-17T09:00:21.872Z,70.23
2022-11-17T09:02:49.417Z,69.28
2022-11-17T09:05:16.109Z,69.90
2022-11-17T09:07:42.835Z,70.01
2022-11-17T09:10:11.223Z,69.75
2022-11-17T09:12:38.318Z,67.84
2022-11-17T09:15:06.303Z,67.67
2022-11-17T09:17:33.039Z,67.20
2022-11-17T09:20:00.095Z,68.40
2022-11-17T09:22:26.858Z,68.38
2022-11-17T09:24:53.588Z,68.05
2022-11-17T09:27:20.290Z,68.00
2022-11-17T09:29:48.170Z,67.38
2022-11-17T09:32:16.841Z,68.11
2022-11-17T09:34:43.573Z,69.06
2022-11-17T09:37:10.370Z,69.18
2022-11-17T09:39:40.730Z,68.00
2022-11-17T09:42:19.039Z,68.70
2022-11-17T09:45:03.927Z,68.59
2022-11-17T09:48:33.567Z,68.66
2022-11-17T09:50:55.031Z,68.29
2022-11-17T09:53:28.201Z,68.12
2022-11-17T09:56:03.016Z,67.82
2022-11-17T09:58:51.018Z,67.11
2022-11-17T10:01:20.108Z,67.60
2022-11-17T10:03:49.489Z,68.02
2022-11-17T10:06:21.432Z,68.29
2022-11-17T10:09:31.181Z,68.05
2022-11-17T10:12:14.717Z,68.58
2022-11-17T10:14:44.448Z,67.71
2022-11-17T10:17:12.815Z,67.48
2022-11-17T10:19:40.144Z,67.63
2022-11-17T10:22:07.153Z,67.68
2022-11-17T10:24:35.109Z,67.04
2022-11-17T10:27:07.124Z,66.94
2022-11-17T10:29:34.072Z,65.96
2022-11-17T10:32:09.591Z,65.61
2022-11-17T10:34:41.399Z,65.54
2022-11-17T10:37:20.127Z,65.59
2022-11-17T10:39:48.254Z,64.85
2022-11-17T10:42:21.312Z,65.07
2022-11-17T10:45:12.417Z,65.33
2022-11-17T10:47:40.549Z,65.43
2022-11-17T10:50:24.566Z,65.94
2022-11-17T10:52:53.673Z,65.80
2022-11-17T10:55:26.824Z,66.69
2022-11-17T10:57:57.905Z,66.56
2022-11-17T11:00:29.837Z,67.53
2022-11-17T11:03:21.521Z,67.51
2022-11-17T11:05:55.409Z,67.03
2022-11-17T11:08:25.141Z,67.64
2022-11-17T11:11:02.309Z,67.75
2022-11-17T11:13:40.676Z,66.70
2022-11-17T11:16:12.114Z,67.13
2022-11-17T11:18:39.874Z,67.20
2022-11-17T11:21:23.563Z,67.06
2022-11-17T11:24:24.274Z,67.67
2022-11-17T11:27:06.283Z,67.81
2022-11-17T11:30:01.330Z,67.59
2022-11-17T11:32:40.850Z,66.42
2022-11-17T11:35:38.680Z,66.64
2022-11-17T11:38:30.802Z,66.55
2022-11-17T11:41:36.459Z,66.87
2022-11-17T11:44:21.582Z,66.57
2022-11-17T11:47:07.246Z,66.88
2022-11-17T11:49:37.066Z,67.46
2022-11-17T11:52:10.704Z,67.47
2022-11-17T11:54:51.099Z,67.27
2022-11-17T11:57:25.021Z,66.80
2022-11-17T12:00:13.874Z,67.25
2022-11-17T12:02:40.707Z,67.59
2022-11-17T12:05:27.502Z,68.38
2022-11-17T12:08:32.198Z,67.22
2022-11-17T12:11:26.317Z,66.96
2022-11-17T12:13:57.742Z,66.39
2022-11-17T12:16:34.619Z,66.60
2022-11-17T12:19:01.923Z,65.64
2022-11-17T12:21:30.662Z,65.06
2022-11-17T12:24:18.812Z,65.64
2022-11-17T12:26:45.659Z,65.51
2022-11-17T12:29:21.595Z,65.72
2022-11-17T12:31:57.486Z,65.96
2022-11-17T12:34:37.229Z,65.34
2022-11-17T12:37:26.288Z,65.83
2022-11-17T12:39:52.966Z,66.11
2022-11-17T12:42:19.647Z,66.21
2022-11-17T12:44:46.555Z,66.08
2022-11-17T12:47:15.792Z,65.46
2022-11-17T12:49:42.265Z,65.58
2022-11-17T12:52:21.024Z,66.55
2022-11-17T12:55:01.056Z,66.17
2022-11-17T12:57:32.504Z,65.69
2022-11-17T13:00:11.956Z,65.90
2022-11-17T13:02:57.712Z,65.59
2022-11-17T13:05:28.571Z,65.68
2022-11-17T13:08:10.369Z,65.13
2022-11-17T13:10:37.219Z,66.00
2022-11-17T13:13:16.235Z,66.17
2022-11-17T13:15:44.271Z,65.62
2022-11-17T13:18:23.619Z,65.81
2022-11-17T13:20:50.261Z,65.79
2022-11-17T13:23:23.939Z,65.46
2022-11-17T13:25:51.382Z,65.18
2022-11-17T13:28:26.947Z,66.05
2022-11-17T13:30:53.819Z,65.80
2022-11-17T13:33:23.359Z,66.16
2022-11-17T13:35:51.557Z,65.82
2022-11-17T13:38:20.181Z,66.92
2022-11-17T13:40:49.326Z,66.65
2022-11-17T13:43:25.162Z,66.85
2022-11-17T13:45:53.894Z,67.20
2022-11-17T13:48:30.365Z,67.25
2022-11-17T13:51:16.107Z,66.39
2022-11-17T13:53:45.365Z,65.55
2022-11-17T13:56:36.581Z,66.51
2022-11-17T13:59:18.569Z,65.86
2022-11-17T14:01:45.711Z,65.05
2022-11-17T14:04:20.052Z,65.22
2022-11-17T14:06:54.393Z,65.19
2022-11-17T14:09:22.621Z,64.57
2022-11-17T14:11:50.477Z,66.33
2022-11-17T14:14:32.479Z,65.72
2022-11-17T14:17:11.144Z,66.17
2022-11-17T14:19:38.562Z,66.78
2022-11-17T14:22:09.823Z,67.24
2022-11-17T14:24:37.796Z,66.72
2022-11-17T14:27:34.977Z,66.15
2022-11-17T14:30:01.896Z,66.52
2022-11-17T14:32:28.717Z,66.65
2022-11-17T14:34:55.348Z,67.54
2022-11-17T14:37:23.385Z,67.51
2022-11-17T14:39:50.057Z,67.49
2022-11-17T14:42:16.908Z,67.69
2022-11-17T14:44:43.553Z,66.91
2022-11-17T14:47:10.119Z,67.40
2022-11-17T14:49:36.741Z,67.70
2022-11-17T14:52:03.365Z,67.73
2022-11-17T14:54:30.071Z,68.10
2022-11-17T14:56:56.570Z,67.87
2022-11-17T14:59:23.490Z,68.06
2022-11-17T15:01:50.153Z,68.64
2022-11-17T15:04:48.405Z,68.98
2022-11-17T15:07:03.590Z,68.42
2022-11-17T15:09:30.340Z,67.50
2022-11-17T15:11:56.881Z,67.94
2022-11-17T15:14:23.591Z,67.00
2022-11-17T15:16:50.173Z,67.98
2022-11-17T15:19:18.162Z,68.49
2022-11-17T15:21:44.972Z,68.03
2022-11-17T15:24:11.684Z,68.14
2022-11-17T15:26:38.328Z,68.23
2022-11-17T15:29:05.240Z,67.14
2022-11-17T15:31:31.920Z,67.42
2022-11-17T15:33:58.473Z,67.62
2022-11-17T15:36:26.389Z,67.80
2022-11-17T15:38:53.590Z,67.69
2022-11-17T15:41:21.265Z,68.59
2022-11-17T15:43:48.061Z,68.17
2022-11-17T15:46:17.469Z,67.10
2022-11-17T15:48:46.318Z,67.28
2022-11-17T15:51:18.037Z,69.02
2022-11-17T15:53:46.800Z,68.77
2022-11-17T15:56:22.756Z,67.90
2022-11-17T15:58:57.828Z,67.57
2022-11-17T16:01:25.070Z,67.22
2022-11-17T16:03:52.814Z,66.72
2022-11-17T16:06:19.958Z,66.80
2022-11-17T16:08:46.698Z,67.50
2022-11-17T16:11:13.987Z,66.37
2022-11-17T16:13:41.051Z,66.43
2022-11-17T16:16:12.242Z,66.75
2022-11-17T16:18:42.936Z,66.08
2022-11-17T16:21:14.243Z,65.40
2022-11-17T16:23:43.131Z,65.81
2022-11-17T16:26:11.786Z,65.27
2022-11-17T16:28:42.064Z,65.39
2022-11-17T16:31:26.611Z,65.38
2022-11-17T16:33:56.023Z,65.20
2022-11-17T16:36:24.878Z,65.11
2022-11-17T16:39:01.878Z,64.36
2022-11-17T16:41:32.427Z,64.79
2022-11-17T16:43:59.831Z,66.50
2022-11-17T16:46:32.510Z,65.97
